Time;durP1;ratioP1;P1;durP2;ratioP2;P2;SDS_P1;SDS_P2;PMS_P1;PMS_P2;Temp;Humidity;BMP_temperature;BMP_pressure;BME280_temperature;BME280_humidity;BME280_pressure;Samples;Min_cycle;Max_cycle;Signal;HPM_P1;HPM_P2
2021/05/11 00:00:01;;;;;;;8.63;7.50;;;;;;;;;;5113395;27;20331;-74
2021/05/11 00:02:27;;;;;;;9.03;7.00;;;;;;;;;;5115895;27;20211;-75
2021/05/11 00:04:53;;;;;;;7.80;7.10;;;;;;;;;;5115598;28;20432;-75
2021/05/11 00:07:19;;;;;;;8.40;6.90;;;;;;;;;;5116223;27;20404;-75
2021/05/11 00:09:45;;;;;;;9.07;6.47;;;;;;;;;;5135544;27;20428;-74
2021/05/11 00:12:11;;;;;;;7.32;6.60;;;;;;;;;;5116014;27;20470;-74
2021/05/11 00:14:37;;;;;;;8.55;7.18;;;;;;;;;;5120095;27;20186;-73
2021/05/11 00:17:03;;;;;;;7.47;5.93;;;;;;;;;;5130751;27;20174;-74
2021/05/11 00:19:30;;;;;;;10.73;6.32;;;;;;;;;;5114880;27;20598;-74
2021/05/11 00:21:56;;;;;;;7.80;6.30;;;;;;;;;;5109080;27;20699;-73
2021/05/11 00:24:22;;;;;;;10.38;6.43;;;;;;;;;;5124838;27;20539;-75
2021/05/11 00:26:48;;;;;;;9.40;6.37;;;;;;;;;;5118844;27;20501;-74
2021/05/11 00:29:14;;;;;;;12.85;7.55;;;;;;;;;;5121602;27;20469;-77
2021/05/11 00:31:40;;;;;;;8.10;6.05;;;;;;;;;;5125225;27;20175;-74
2021/05/11 00:34:06;;;;;;;7.90;6.30;;;;;;;;;;5116604;27;20595;-75
2021/05/11 00:36:32;;;;;;;6.85;4.97;;;;;;;;;;5116723;27;20171;-76
2021/05/11 00:38:58;;;;;;;9.27;5.73;;;;;;;;;;5128002;27;20225;-75
2021/05/11 00:41:24;;;;;;;10.85;6.10;;;;;;;;;;5113112;27;20464;-74
2021/05/11 00:43:50;;;;;;;7.38;5.93;;;;;;;;;;5135925;27;20581;-74
2021/05/11 00:46:18;;;;;;;7.43;6.10;;;;;;;;;;5131766;27;20213;-74
2021/05/11 00:48:44;;;;;;;8.77;7.47;;;;;;;;;;5111703;28;20240;-75
2021/05/11 00:51:10;;;;;;;7.47;6.53;;;;;;;;;;5107875;27;20210;-74
2021/05/11 00:53:38;;;;;;;6.82;6.13;;;;;;;;;;5123061;27;20411;-76
2021/05/11 00:56:04;;;;;;;7.75;5.97;;;;;;;;;;5113320;27;20638;-74
2021/05/11 00:58:30;;;;;;;9.00;6.10;;;;;;;;;;5123305;27;20198;-74
2021/05/11 01:00:56;;;;;;;7.28;6.35;;;;;;;;;;5113848;27;20210;-74
2021/05/11 01:03:22;;;;;;;6.75;6.03;;;;;;;;;;5114326;27;20295;-76
2021/05/11 01:05:48;;;;;;;8.27;6.35;;;;;;;;;;5115042;27;20544;-75
2021/05/11 01:08:14;;;;;;;7.83;6.23;;;;;;;;;;5123825;27;20201;-75
2021/05/11 01:10:41;;;;;;;7.05;6.35;;;;;;;;;;5135767;27;20403;-75
2021/05/11 01:13:07;;;;;;;6.70;6.10;;;;;;;;;;5120828;27;20177;-76
2021/05/11 01:15:36;;;;;;;10.07;7.15;;;;;;;;;;5121821;27;20215;-77
2021/05/11 01:18:07;;;;;;;12.27;6.55;;;;;;;;;;5120481;27;20233;-74
2021/05/11 01:20:38;;;;;;;10.98;7.10;;;;;;;;;;5132884;27;20235;-75
2021/05/11 01:25:32;;;;;;;7.93;7.13;;;;;;;;;;5129153;27;20273;-78
2021/05/11 01:43:57;;;;;;;8.25;7.32;;;;;;;;;;5120558;27;20224;-74
2021/05/11 01:57:06;;;;;;;9.07;7.15;;;;;;;;;;5125894;27;20227;-77
2021/05/11 02:10:38;;;;;;;11.85;7.68;;;;;;;;;;5134374;27;20180;-75
2021/05/11 02:23:58;;;;;;;7.35;6.50;;;;;;;;;;5129607;27;20188;-75
2021/05/11 02:26:24;;;;;;;7.45;6.75;;;;;;;;;;5122429;27;20179;-76
2021/05/11 02:28:50;;;;;;;7.03;5.53;;;;;;;;;;5110334;27;20682;-78
2021/05/11 02:31:16;;;;;;;9.57;7.50;;;;;;;;;;5115334;27;20449;-75
2021/05/11 02:33:42;;;;;;;11.88;6.75;;;;;;;;;;5115922;27;20435;-76
2021/05/11 02:36:08;;;;;;;9.88;7.90;;;;;;;;;;5113326;28;20654;-77
2021/05/11 02:38:34;;;;;;;10.83;7.33;;;;;;;;;;5117018;27;20190;-78
2021/05/11 02:41:00;;;;;;;9.80;7.73;;;;;;;;;;5118023;27;20837;-78
2021/05/11 02:43:30;;;;;;;11.05;8.05;;;;;;;;;;5131296;27;20414;-77
2021/05/11 02:45:56;;;;;;;9.10;8.10;;;;;;;;;;5114901;27;20174;-76
2021/05/11 02:48:22;;;;;;;10.35;8.02;;;;;;;;;;5124837;27;20186;-75
2021/05/11 02:50:48;;;;;;;9.30;8.30;;;;;;;;;;5113528;28;20266;-76
2021/05/11 02:53:14;;;;;;;11.68;8.77;;;;;;;;;;5113722;28;20777;-77
2021/05/11 02:55:40;;;;;;;10.80;8.43;;;;;;;;;;5112707;28;20178;-77
2021/05/11 02:58:06;;;;;;;10.83;9.63;;;;;;;;;;5112171;28;20932;-77
2021/05/11 03:00:32;;;;;;;9.83;8.83;;;;;;;;;;5104081;28;20491;-75
2021/05/11 03:02:58;;;;;;;11.60;9.23;;;;;;;;;;5117959;28;20459;-78
2021/05/11 03:05:24;;;;;;;12.10;9.43;;;;;;;;;;5120518;28;20435;-77
2021/05/11 03:07:50;;;;;;;11.75;10.00;;;;;;;;;;5118458;28;20174;-75
2021/05/11 03:10:17;;;;;;;11.70;10.35;;;;;;;;;;5133952;28;20527;-78
2021/05/11 03:12:43;;;;;;;13.55;9.95;;;;;;;;;;5109965;28;20182;-75
2021/05/11 03:15:09;;;;;;;10.48;8.57;;;;;;;;;;5108939;27;20180;-77
2021/05/11 03:17:36;;;;;;;13.82;8.65;;;;;;;;;;5122942;27;20182;-76
2021/05/11 03:20:03;;;;;;;9.00;7.10;;;;;;;;;;5124159;27;20284;-77
2021/05/11 03:22:29;;;;;;;9.82;7.20;;;;;;;;;;5122297;27;20199;-75
2021/05/11 03:24:55;;;;;;;8.47;7.10;;;;;;;;;;5127172;27;20742;-75
2021/05/11 03:27:21;;;;;;;12.38;8.15;;;;;;;;;;5118757;27;20421;-75
2021/05/11 03:29:47;;;;;;;10.13;7.25;;;;;;;;;;5112472;28;20536;-80
2021/05/11 03:32:13;;;;;;;9.00;7.50;;;;;;;;;;5136267;27;20212;-76
2021/05/11 03:34:40;;;;;;;8.30;7.37;;;;;;;;;;5113998;27;20210;-75
2021/05/11 03:37:06;;;;;;;10.45;6.90;;;;;;;;;;5123478;27;20495;-75
2021/05/11 03:39:40;;;;;;;8.00;6.38;;;;;;;;;;5129139;27;20561;-75
2021/05/11 03:44:41;;;;;;;11.45;6.28;;;;;;;;;;5135147;27;20247;-77
2021/05/11 03:47:07;;;;;;;10.50;6.80;;;;;;;;;;5125685;27;20184;-78
2021/05/11 03:49:33;;;;;;;7.35;6.25;;;;;;;;;;5103861;27;20193;-76
2021/05/11 03:51:59;;;;;;;6.03;5.30;;;;;;;;;;5128681;27;20182;-74
2021/05/11 03:54:25;;;;;;;4.87;4.33;;;;;;;;;;5102255;27;20840;-75
2021/05/11 03:56:51;;;;;;;7.85;4.60;;;;;;;;;;5126517;27;20427;-78
2021/05/11 03:59:17;;;;;;;6.43;3.87;;;;;;;;;;5116880;27;20617;-77
2021/05/11 04:01:43;;;;;;;4.97;3.70;;;;;;;;;;5123819;27;20456;-78
2021/05/11 04:04:09;;;;;;;20.73;4.83;;;;;;;;;;5113247;28;20275;-77
2021/05/11 04:06:35;;;;;;;2.77;2.57;;;;;;;;;;5116623;28;20421;-78
2021/05/11 04:09:12;;;;;;;3.58;3.00;;;;;;;;;;5117195;27;20425;-74
2021/05/11 04:16:43;;;;;;;4.38;3.40;;;;;;;;;;5115115;28;20688;-78
2021/05/11 04:19:09;;;;;;;5.85;4.72;;;;;;;;;;5115748;28;20570;-75
2021/05/11 04:21:35;;;;;;;4.65;4.25;;;;;;;;;;5115678;27;20256;-77
2021/05/11 04:24:02;;;;;;;5.40;3.83;;;;;;;;;;5120841;27;20269;-77
2021/05/11 04:26:28;;;;;;;5.07;4.57;;;;;;;;;;5126430;27;20623;-73
2021/05/11 04:28:54;;;;;;;6.35;4.80;;;;;;;;;;5115339;28;20233;-73
2021/05/11 04:31:20;;;;;;;5.93;3.85;;;;;;;;;;5117790;27;20176;-78
2021/05/11 04:33:47;;;;;;;11.27;3.80;;;;;;;;;;5112620;27;20183;-76
2021/05/11 04:36:15;;;;;;;5.50;3.05;;;;;;;;;;5111653;28;20652;-77
2021/05/11 04:38:42;;;;;;;7.93;3.50;;;;;;;;;;5121285;27;20244;-78
2021/05/11 04:41:08;;;;;;;4.63;3.38;;;;;;;;;;5125201;27;20285;-76
2021/05/11 04:43:36;;;;;;;7.30;3.50;;;;;;;;;;5121088;27;20285;-76
2021/05/11 04:46:13;;;;;;;5.90;3.42;;;;;;;;;;5136163;27;20252;-79
2021/05/11 04:48:39;;;;;;;2.97;2.67;;;;;;;;;;5105059;28;20208;-75
2021/05/11 04:51:05;;;;;;;4.65;3.13;;;;;;;;;;5115477;27;20648;-75
2021/05/11 04:53:31;;;;;;;9.17;3.10;;;;;;;;;;5107879;27;20191;-75
2021/05/11 04:55:57;;;;;;;6.30;2.70;;;;;;;;;;5116175;27;20901;-75
2021/05/11 04:58:23;;;;;;;5.00;2.50;;;;;;;;;;5109652;27;20449;-76
2021/05/11 05:00:50;;;;;;;4.67;2.50;;;;;;;;;;5118272;27;20434;-77
2021/05/11 05:03:17;;;;;;;6.03;2.40;;;;;;;;;;5115840;27;20565;-75
2021/05/11 05:05:46;;;;;;;3.92;2.00;;;;;;;;;;5124162;27;20190;-75
2021/05/11 05:08:12;;;;;;;4.85;2.50;;;;;;;;;;5123005;27;20236;-75
2021/05/11 05:10:38;;;;;;;6.18;3.40;;;;;;;;;;5135716;27;20170;-75
2021/05/11 05:13:04;;;;;;;4.35;2.95;;;;;;;;;;5133948;27;20178;-75
2021/05/11 05:15:31;;;;;;;4.57;3.10;;;;;;;;;;5121693;27;20710;-77
2021/05/11 05:17:57;;;;;;;5.07;3.20;;;;;;;;;;5120184;27;20307;-77
2021/05/11 05:20:23;;;;;;;6.40;3.70;;;;;;;;;;5124013;27;20220;-75
2021/05/11 05:22:49;;;;;;;8.57;3.90;;;;;;;;;;5111048;27;20468;-74
2021/05/11 05:25:22;;;;;;;5.77;3.90;;;;;;;;;;5130023;27;20455;-74
2021/05/11 05:27:55;;;;;;;6.20;3.85;;;;;;;;;;5109335;27;20513;-77
2021/05/11 05:30:22;;;;;;;9.57;4.00;;;;;;;;;;5117809;27;20543;-74
2021/05/11 05:32:48;;;;;;;6.50;3.80;;;;;;;;;;5117803;27;20185;-77
2021/05/11 05:35:14;;;;;;;5.00;4.20;;;;;;;;;;5108551;27;20184;-73
2021/05/11 05:37:40;;;;;;;4.97;3.60;;;;;;;;;;5108557;28;20444;-76
2021/05/11 05:40:09;;;;;;;7.50;4.30;;;;;;;;;;5131413;27;20209;-77
2021/05/11 05:42:35;;;;;;;8.65;4.78;;;;;;;;;;5116699;27;20548;-75
2021/05/11 05:45:01;;;;;;;8.53;5.17;;;;;;;;;;5124749;27;20257;-77
2021/05/11 05:47:27;;;;;;;7.20;4.50;;;;;;;;;;5114031;28;20425;-76
2021/05/11 05:50:00;;;;;;;6.07;4.20;;;;;;;;;;5106910;27;20475;-75
2021/05/11 05:52:35;;;;;;;6.38;4.78;;;;;;;;;;5105809;28;20181;-76
2021/05/11 05:55:01;;;;;;;5.60;4.60;;;;;;;;;;5113594;28;20592;-76
2021/05/11 05:57:27;;;;;;;7.47;5.18;;;;;;;;;;5112360;28;20178;-74
2021/05/11 05:59:53;;;;;;;9.20;5.80;;;;;;;;;;5113966;28;20214;-76
2021/05/11 06:02:22;;;;;;;5.23;4.57;;;;;;;;;;5113925;27;20433;-77
2021/05/11 06:04:48;;;;;;;6.78;4.90;;;;;;;;;;5106997;27;20518;-77
2021/05/11 06:07:15;;;;;;;5.00;4.30;;;;;;;;;;5134474;27;20250;-76
2021/05/11 06:09:41;;;;;;;7.13;4.93;;;;;;;;;;5134517;27;20197;-77
2021/05/11 06:17:00;;;;;;;7.07;4.68;;;;;;;;;;5121757;27;20550;-78
2021/05/11 06:17:35;;;;;;;6.07;4.50;;;;;;;;;;5118571;27;20192;-76
2021/05/11 06:20:01;;;;;;;12.25;5.47;;;;;;;;;;5125041;27;20198;-75
2021/05/11 06:22:27;;;;;;;7.30;5.18;;;;;;;;;;5116950;27;20197;-74
2021/05/11 06:24:53;;;;;;;6.90;4.57;;;;;;;;;;5099692;28;20287;-74
2021/05/11 06:27:20;;;;;;;8.52;5.40;;;;;;;;;;5125601;27;20489;-75
2021/05/11 06:29:47;;;;;;;6.30;5.32;;;;;;;;;;5107913;28;20202;-77
2021/05/11 06:32:13;;;;;;;6.68;4.93;;;;;;;;;;5110711;27;20205;-76
2021/05/11 06:34:45;;;;;;;8.18;5.05;;;;;;;;;;5109612;28;20186;-75
2021/05/11 06:37:11;;;;;;;7.25;5.15;;;;;;;;;;5117744;27;20173;-77
2021/05/11 06:39:37;;;;;;;6.40;4.60;;;;;;;;;;5129907;27;20254;-77
2021/05/11 06:42:03;;;;;;;6.70;4.68;;;;;;;;;;5129921;27;20496;-76
2021/05/11 06:50:13;;;;;;;7.95;4.95;;;;;;;;;;5119547;27;20202;-78
2021/05/11 06:52:53;;;;;;;10.07;5.20;;;;;;;;;;5109682;28;20189;-76
2021/05/11 06:55:20;;;;;;;7.57;5.10;;;;;;;;;;5101941;28;20193;-75
2021/05/11 06:57:46;;;;;;;7.57;5.25;;;;;;;;;;5108903;28;20175;-79
2021/05/11 07:00:13;;;;;;;6.40;4.00;;;;;;;;;;5130023;28;20181;-77
2021/05/11 07:02:39;;;;;;;6.45;4.40;;;;;;;;;;5110563;28;20462;-76
2021/05/11 07:05:05;;;;;;;8.60;4.40;;;;;;;;;;5118870;28;20198;-74
2021/05/11 07:07:32;;;;;;;5.90;4.40;;;;;;;;;;5108382;28;20471;-76
2021/05/11 07:10:17;;;;;;;6.35;4.53;;;;;;;;;;5122053;28;20492;-76
2021/05/11 07:15:27;;;;;;;5.88;4.45;;;;;;;;;;5116090;28;20220;-78
2021/05/11 07:18:04;;;;;;;12.50;9.60;;;;;;;;;;5111028;28;20215;-77
2021/05/11 07:20:30;;;;;;;15.43;12.85;;;;;;;;;;5129966;28;20417;-78
2021/05/11 07:22:56;;;;;;;15.83;9.30;;;;;;;;;;5111069;28;20207;-75
2021/05/11 07:25:25;;;;;;;8.00;5.50;;;;;;;;;;5111535;28;20391;-77
2021/05/11 07:28:06;;;;;;;14.77;12.07;;;;;;;;;;5108982;28;21326;-74
2021/05/11 07:30:33;;;;;;;9.00;6.78;;;;;;;;;;5108952;28;20257;-76
2021/05/11 07:32:59;;;;;;;8.48;5.63;;;;;;;;;;5109001;28;20327;-74
2021/05/11 07:35:25;;;;;;;9.40;5.40;;;;;;;;;;5112888;28;20182;-75
2021/05/11 07:37:51;;;;;;;7.88;5.65;;;;;;;;;;5112315;28;20474;-78
2021/05/11 07:40:17;;;;;;;5.13;3.50;;;;;;;;;;5114844;28;20179;-76
2021/05/11 07:42:43;;;;;;;5.03;3.83;;;;;;;;;;5118419;28;20552;-78
2021/05/11 07:45:11;;;;;;;5.75;4.53;;;;;;;;;;5108920;28;20185;-79
2021/05/11 08:04:38;;;;;;;6.15;3.50;;;;;;;;;;5090084;28;20192;-79
2021/05/11 08:17:34;;;;;;;16.15;10.63;;;;;;;;;;5125681;27;20195;-77
2021/05/11 08:20:31;;;;;;;6.18;3.25;;;;;;;;;;5124114;27;20190;-77
2021/05/11 08:28:30;;;;;;;6.00;3.45;;;;;;;;;;5109165;27;20563;-78
2021/05/11 08:30:56;;;;;;;5.10;3.60;;;;;;;;;;5116164;27;20178;-79
2021/05/11 08:33:22;;;;;;;4.80;3.33;;;;;;;;;;5132477;27;20184;-78
2021/05/11 08:35:51;;;;;;;6.40;3.30;;;;;;;;;;5128170;27;20423;-79
2021/05/11 08:38:17;;;;;;;5.93;3.58;;;;;;;;;;5132256;27;20732;-78
2021/05/11 08:40:43;;;;;;;5.97;3.10;;;;;;;;;;5123318;27;20207;-78
2021/05/11 08:43:29;;;;;;;4.40;3.10;;;;;;;;;;5113610;27;20981;-75
2021/05/11 08:46:00;;;;;;;6.20;3.70;;;;;;;;;;5114554;27;20517;-77
2021/05/11 08:48:26;;;;;;;4.95;3.05;;;;;;;;;;5112490;27;20867;-78
2021/05/11 08:50:59;;;;;;;5.18;3.40;;;;;;;;;;5111668;28;20524;-76
2021/05/11 09:26:40;;;;;;;7.25;2.90;;;;;;;;;;5123899;27;20730;-76
2021/05/11 09:29:23;;;;;;;6.63;2.95;;;;;;;;;;5109614;28;20234;-75
2021/05/11 09:32:09;;;;;;;6.63;2.20;;;;;;;;;;5107923;27;20182;-75
2021/05/11 10:42:14;;;;;;;4.30;2.65;;;;;;;;;;5094636;27;20210;-76
2021/05/11 10:46:23;;;;;;;5.28;2.80;;;;;;;;;;5105669;28;20186;-78
2021/05/11 10:48:01;;;;;;;3.00;2.30;;;;;;;;;;5107420;28;20189;-78
2021/05/11 10:50:47;;;;;;;3.78;2.70;;;;;;;;;;5120778;27;20206;-79
2021/05/11 10:53:31;;;;;;;5.68;2.90;;;;;;;;;;5102780;27;20238;-76
2021/05/11 10:56:17;;;;;;;26.60;20.80;;;;;;;;;;5112922;27;20198;-76
2021/05/11 10:59:02;;;;;;;4.20;3.43;;;;;;;;;;5099588;28;20449;-78
2021/05/11 11:01:32;;;;;;;8.37;7.47;;;;;;;;;;5098262;27;20505;-79
2021/05/11 11:04:08;;;;;;;7.03;6.33;;;;;;;;;;5110891;28;20425;-77
2021/05/11 11:06:53;;;;;;;8.53;7.60;;;;;;;;;;5110897;28;20402;-76
2021/05/11 11:09:19;;;;;;;4.07;3.67;;;;;;;;;;5125170;28;20448;-79
2021/05/11 11:11:46;;;;;;;4.43;3.80;;;;;;;;;;5118171;28;20431;-76
2021/05/11 11:14:13;;;;;;;9.63;5.20;;;;;;;;;;5122212;28;20466;-76
2021/05/11 11:16:39;;;;;;;8.73;7.80;;;;;;;;;;5129761;28;20423;-78
2021/05/11 11:19:09;;;;;;;4.23;3.00;;;;;;;;;;5124395;28;20447;-77
2021/05/11 11:24:29;;;;;;;3.10;2.10;;;;;;;;;;5114271;28;20516;-77
2021/05/11 11:26:57;;;;;;;4.00;2.20;;;;;;;;;;5111721;28;20441;-78
2021/05/11 11:29:24;;;;;;;4.40;2.30;;;;;;;;;;5104273;28;20440;-80
2021/05/11 11:31:50;;;;;;;2.67;2.10;;;;;;;;;;5107985;28;20931;-78
2021/05/11 11:34:28;;;;;;;3.20;2.10;;;;;;;;;;5109211;28;20418;-80
2021/05/11 11:36:59;;;;;;;2.90;1.90;;;;;;;;;;5115404;27;20414;-79
2021/05/11 11:39:29;;;;;;;3.50;1.97;;;;;;;;;;5129345;27;20804;-77
2021/05/11 11:41:56;;;;;;;3.17;1.83;;;;;;;;;;5133577;27;20462;-77
2021/05/11 11:44:24;;;;;;;3.30;2.53;;;;;;;;;;5114822;27;20416;-79
2021/05/11 11:46:50;;;;;;;3.10;1.80;;;;;;;;;;5126977;27;20514;-79
2021/05/11 11:49:18;;;;;;;5.17;2.47;;;;;;;;;;5124963;27;20438;-79
2021/05/11 11:51:44;;;;;;;3.20;1.90;;;;;;;;;;5118458;27;20433;-78
2021/05/11 11:54:33;;;;;;;2.90;2.07;;;;;;;;;;5133490;27;20505;-79
2021/05/11 11:59:35;;;;;;;4.37;1.80;;;;;;;;;;5111939;27;20950;-78
2021/05/11 12:02:03;;;;;;;3.13;2.23;;;;;;;;;;5110606;27;20466;-77
2021/05/11 12:04:30;;;;;;;4.17;1.90;;;;;;;;;;5126494;27;20469;-78
2021/05/11 12:07:02;;;;;;;3.20;1.60;;;;;;;;;;5109692;28;21004;-77
2021/05/11 12:09:28;;;;;;;5.97;2.13;;;;;;;;;;5107996;28;20446;-77
2021/05/11 12:11:54;;;;;;;4.33;1.60;;;;;;;;;;5104144;27;20422;-77
2021/05/11 12:14:20;;;;;;;3.50;1.77;;;;;;;;;;5131221;27;20418;-77
2021/05/11 12:16:47;;;;;;;4.07;1.80;;;;;;;;;;5112538;28;20412;-77
2021/05/11 12:19:18;;;;;;;4.57;1.80;;;;;;;;;;5119034;27;20434;-78
2021/05/11 12:22:07;;;;;;;2.33;1.67;;;;;;;;;;5119938;27;20568;-78
2021/05/11 12:24:35;;;;;;;3.57;1.97;;;;;;;;;;5121138;27;20419;-78
2021/05/11 12:27:12;;;;;;;2.70;1.60;;;;;;;;;;5115220;27;20444;-77
2021/05/11 12:29:38;;;;;;;3.60;1.80;;;;;;;;;;5103278;28;20447;-78
2021/05/11 12:32:04;;;;;;;2.87;1.70;;;;;;;;;;5110434;27;20427;-80
2021/05/11 12:34:30;;;;;;;2.30;1.67;;;;;;;;;;5111016;28;20546;-79
2021/05/11 12:36:58;;;;;;;2.70;1.93;;;;;;;;;;5108633;28;20437;-78
2021/05/11 12:41:51;;;;;;;3.73;1.73;;;;;;;;;;5113384;27;20511;-76
2021/05/11 12:44:30;;;;;;;2.60;1.63;;;;;;;;;;5106323;27;20418;-79
2021/05/11 12:47:03;;;;;;;2.80;1.70;;;;;;;;;;5105460;27;20899;-79
2021/05/11 12:49:29;;;;;;;3.80;1.70;;;;;;;;;;5114239;27;21255;-80
2021/05/11 12:51:56;;;;;;;3.17;1.90;;;;;;;;;;5121593;27;20461;-79
2021/05/11 12:54:31;;;;;;;4.30;2.33;;;;;;;;;;5140634;27;20441;-80
2021/05/11 12:59:50;;;;;;;4.67;2.60;;;;;;;;;;5111671;28;20466;-80
2021/05/11 13:02:35;;;;;;;3.47;1.90;;;;;;;;;;5107811;28;20473;-80
2021/05/11 13:16:29;;;;;;;3.80;1.90;;;;;;;;;;5111413;28;20423;-81
2021/05/11 13:27:18;;;;;;;3.40;2.20;;;;;;;;;;5109695;28;20497;-78
2021/05/11 13:35:17;;;;;;;4.07;2.07;;;;;;;;;;5113546;27;20793;-78
2021/05/11 13:37:43;;;;;;;6.80;2.40;;;;;;;;;;5116329;27;20424;-80
2021/05/11 13:40:12;;;;;;;5.03;1.90;;;;;;;;;;5117043;27;20824;-78
2021/05/11 13:42:38;;;;;;;3.07;1.70;;;;;;;;;;5110242;28;20472;-79
2021/05/11 13:45:05;;;;;;;2.70;2.07;;;;;;;;;;5114979;27;20430;-79
2021/05/11 13:47:31;;;;;;;3.80;2.23;;;;;;;;;;5130805;27;20416;-80
2021/05/11 13:50:01;;;;;;;2.97;2.23;;;;;;;;;;5114261;27;20975;-78
2021/05/11 13:52:27;;;;;;;3.17;2.00;;;;;;;;;;5107465;28;20466;-80
2021/05/11 13:54:57;;;;;;;3.83;2.13;;;;;;;;;;5108664;28;20435;-79
2021/05/11 13:57:32;;;;;;;3.20;2.00;;;;;;;;;;5109353;27;20529;-79
2021/05/11 14:02:50;;;;;;;3.00;1.90;;;;;;;;;;5107831;28;20462;-79
2021/05/11 14:05:16;;;;;;;3.07;1.80;;;;;;;;;;5114939;27;20470;-79
2021/05/11 14:07:43;;;;;;;2.93;2.07;;;;;;;;;;5126593;27;20409;-80
2021/05/11 14:10:10;;;;;;;3.30;2.20;;;;;;;;;;5110160;28;20469;-78
2021/05/11 14:12:36;;;;;;;2.80;2.10;;;;;;;;;;5111664;27;20434;-80
2021/05/11 14:15:02;;;;;;;3.20;2.00;;;;;;;;;;5117638;27;20772;-79
2021/05/11 14:17:28;;;;;;;3.37;2.00;;;;;;;;;;5110031;28;20430;-80
2021/05/11 14:19:54;;;;;;;3.40;2.03;;;;;;;;;;5118526;27;20949;-78
2021/05/11 14:22:20;;;;;;;4.97;2.20;;;;;;;;;;5142670;27;20472;-79
2021/05/11 14:24:50;;;;;;;2.70;2.00;;;;;;;;;;5143156;27;20775;-77
2021/05/11 14:27:16;;;;;;;5.40;2.20;;;;;;;;;;5126973;27;20412;-79
2021/05/11 14:29:43;;;;;;;2.90;2.27;;;;;;;;;;5131460;27;20462;-79
2021/05/11 14:32:09;;;;;;;2.93;2.00;;;;;;;;;;5118060;27;20428;-80
2021/05/11 14:34:35;;;;;;;6.70;2.73;;;;;;;;;;5092557;28;20433;-80
2021/05/11 14:37:01;;;;;;;4.63;2.30;;;;;;;;;;5099021;28;20435;-80
2021/05/11 14:39:27;;;;;;;2.60;2.13;;;;;;;;;;5118634;27;20511;-79
2021/05/11 14:41:54;;;;;;;3.13;2.40;;;;;;;;;;5121368;27;20463;-79
2021/05/11 14:44:21;;;;;;;3.47;2.57;;;;;;;;;;5112950;27;20842;-80
2021/05/11 14:46:47;;;;;;;5.13;2.30;;;;;;;;;;5125093;27;20785;-80
2021/05/11 14:49:13;;;;;;;3.40;2.60;;;;;;;;;;5108157;28;20547;-80
2021/05/11 14:51:39;;;;;;;3.10;2.23;;;;;;;;;;5110734;28;20433;-80
2021/05/11 14:54:05;;;;;;;3.37;2.33;;;;;;;;;;5105722;27;20426;-80
2021/05/11 14:56:31;;;;;;;11.30;2.77;;;;;;;;;;5124704;27;20812;-80
2021/05/11 14:58:57;;;;;;;7.30;2.93;;;;;;;;;;5122961;27;20432;-81
2021/05/11 15:01:24;;;;;;;3.53;2.40;;;;;;;;;;5122651;27;20777;-79
2021/05/11 15:03:50;;;;;;;4.30;2.73;;;;;;;;;;5123344;28;20414;-79
2021/05/11 15:06:16;;;;;;;3.13;2.10;;;;;;;;;;5129802;28;20429;-80
2021/05/11 15:08:42;;;;;;;3.53;2.33;;;;;;;;;;5104837;28;20441;-80
2021/05/11 15:11:08;;;;;;;5.33;2.70;;;;;;;;;;5112218;28;20434;-77
2021/05/11 15:13:34;;;;;;;4.40;2.60;;;;;;;;;;5114472;27;20563;-79
2021/05/11 15:16:06;;;;;;;5.97;2.93;;;;;;;;;;5128260;27;20427;-79
2021/05/11 15:18:32;;;;;;;2.83;2.53;;;;;;;;;;5113401;28;20440;-79
2021/05/11 15:20:58;;;;;;;4.30;2.90;;;;;;;;;;5124736;27;20411;-79
2021/05/11 15:23:24;;;;;;;3.90;2.60;;;;;;;;;;5116614;27;20470;-80
2021/05/11 15:25:50;;;;;;;3.70;2.27;;;;;;;;;;5116738;28;20911;-79
2021/05/11 15:28:16;;;;;;;3.07;2.10;;;;;;;;;;5111774;27;20446;-80
2021/05/11 15:30:43;;;;;;;7.10;2.60;;;;;;;;;;5114719;27;20489;-80
2021/05/11 15:33:11;;;;;;;5.53;2.43;;;;;;;;;;5112832;27;20431;-79
2021/05/11 15:35:37;;;;;;;3.73;2.47;;;;;;;;;;5110838;28;20484;-80
2021/05/11 15:38:05;;;;;;;3.20;2.43;;;;;;;;;;5119069;27;20447;-79
2021/05/11 15:40:36;;;;;;;2.73;2.10;;;;;;;;;;5114118;28;20436;-79
2021/05/11 15:43:04;;;;;;;3.90;2.47;;;;;;;;;;5134410;27;20497;-79
2021/05/11 15:45:30;;;;;;;3.60;2.50;;;;;;;;;;5122325;27;20428;-79
2021/05/11 15:47:56;;;;;;;3.40;2.50;;;;;;;;;;5117473;28;20412;-79
2021/05/11 15:50:30;;;;;;;2.97;2.20;;;;;;;;;;5113312;28;20413;-79
2021/05/11 15:52:59;;;;;;;3.00;2.50;;;;;;;;;;5120325;27;20422;-79
2021/05/11 15:55:25;;;;;;;5.80;2.60;;;;;;;;;;5129646;27;20449;-79
2021/05/11 15:57:59;;;;;;;3.40;2.40;;;;;;;;;;5118023;27;20822;-79
2021/05/11 16:00:25;;;;;;;4.70;2.50;;;;;;;;;;5130592;27;20443;-80
2021/05/11 16:02:51;;;;;;;3.33;2.43;;;;;;;;;;5116808;27;20831;-79
2021/05/11 16:05:18;;;;;;;3.77;2.40;;;;;;;;;;5122043;27;20782;-78
2021/05/11 16:07:44;;;;;;;4.40;2.80;;;;;;;;;;5133743;27;20436;-78
2021/05/11 16:10:10;;;;;;;4.20;2.70;;;;;;;;;;5125110;27;20939;-78
2021/05/11 16:12:37;;;;;;;2.80;2.27;;;;;;;;;;5135662;27;20418;-78
2021/05/11 16:15:10;;;;;;;4.13;2.40;;;;;;;;;;5131287;27;20973;-79
2021/05/11 16:17:40;;;;;;;3.27;2.23;;;;;;;;;;5116393;28;20508;-80
2021/05/11 16:20:08;;;;;;;5.90;2.80;;;;;;;;;;5118201;27;20520;-79
2021/05/11 16:22:34;;;;;;;6.83;2.77;;;;;;;;;;5134065;27;20464;-80
2021/05/11 16:25:00;;;;;;;3.90;2.63;;;;;;;;;;5127078;27;20949;-79
2021/05/11 16:27:27;;;;;;;3.83;2.53;;;;;;;;;;5113729;27;20410;-79
2021/05/11 16:29:53;;;;;;;5.30;2.90;;;;;;;;;;5116801;27;20431;-79
2021/05/11 16:32:19;;;;;;;4.40;3.00;;;;;;;;;;5112939;28;20893;-79
2021/05/11 16:34:45;;;;;;;5.10;2.70;;;;;;;;;;5122773;27;20814;-80
2021/05/11 16:37:11;;;;;;;4.30;2.50;;;;;;;;;;5110752;28;20424;-80
2021/05/11 16:39:37;;;;;;;6.53;2.70;;;;;;;;;;5121870;27;20459;-79
2021/05/11 16:42:04;;;;;;;4.53;2.93;;;;;;;;;;5131995;27;20565;-79
2021/05/11 16:44:30;;;;;;;6.27;2.77;;;;;;;;;;5118201;27;20428;-79
2021/05/11 16:46:56;;;;;;;4.03;3.00;;;;;;;;;;5107220;27;20478;-80
2021/05/11 16:49:23;;;;;;;3.90;2.77;;;;;;;;;;5114147;27;20521;-80
2021/05/11 16:51:49;;;;;;;6.00;3.30;;;;;;;;;;5129018;27;20415;-80
2021/05/11 16:54:15;;;;;;;3.70;2.80;;;;;;;;;;5111123;27;20416;-80
2021/05/11 16:56:41;;;;;;;4.80;2.70;;;;;;;;;;5113165;27;20420;-78
2021/05/11 16:59:07;;;;;;;3.60;3.13;;;;;;;;;;5131997;27;20435;-79
2021/05/11 17:01:34;;;;;;;6.00;3.10;;;;;;;;;;5099919;27;20478;-79
2021/05/11 17:04:00;;;;;;;4.50;3.07;;;;;;;;;;5113430;27;20548;-80
2021/05/11 17:06:29;;;;;;;3.93;2.90;;;;;;;;;;5108355;27;20931;-80
2021/05/11 17:08:55;;;;;;;3.70;2.70;;;;;;;;;;5123522;27;20451;-80
2021/05/11 17:11:21;;;;;;;5.73;2.80;;;;;;;;;;5117321;27;20428;-79
2021/05/11 17:13:48;;;;;;;3.70;3.17;;;;;;;;;;5128906;27;20416;-80
2021/05/11 17:16:14;;;;;;;4.30;2.80;;;;;;;;;;5116026;27;20424;-79
2021/05/11 17:18:41;;;;;;;3.47;2.50;;;;;;;;;;5131749;27;21003;-81
2021/05/11 17:21:08;;;;;;;4.22;3.20;;;;;;;;;;5123248;27;20419;-80
2021/05/11 17:23:34;;;;;;;4.17;2.77;;;;;;;;;;5128609;27;20267;-79
2021/05/11 17:26:01;;;;;;;3.87;2.30;;;;;;;;;;5118416;27;20453;-81
2021/05/11 17:28:31;;;;;;;3.33;2.35;;;;;;;;;;5120108;27;20436;-80
2021/05/11 17:30:57;;;;;;;3.50;2.50;;;;;;;;;;5104486;28;20524;-80
2021/05/11 17:33:25;;;;;;;3.60;2.40;;;;;;;;;;5115082;27;20452;-80
2021/05/11 17:35:51;;;;;;;4.47;2.93;;;;;;;;;;5110754;28;20443;-79
2021/05/11 17:38:20;;;;;;;3.00;2.30;;;;;;;;;;5122325;27;20951;-81
2021/05/11 17:40:47;;;;;;;5.87;2.80;;;;;;;;;;5106972;27;20482;-78
2021/05/11 17:43:13;;;;;;;4.60;2.42;;;;;;;;;;5129849;27;20462;-81
2021/05/11 17:45:39;;;;;;;4.67;2.50;;;;;;;;;;5110480;27;20225;-80
2021/05/11 17:48:06;;;;;;;5.03;2.30;;;;;;;;;;5122249;27;20448;-80
2021/05/11 17:50:32;;;;;;;4.97;2.50;;;;;;;;;;5131238;27;20403;-80
2021/05/11 17:52:59;;;;;;;6.70;3.20;;;;;;;;;;5117727;27;20183;-79
2021/05/11 17:55:25;;;;;;;4.00;2.10;;;;;;;;;;5110117;27;20202;-81
2021/05/11 17:57:51;;;;;;;6.93;2.73;;;;;;;;;;5112161;27;20754;-76
2021/05/11 18:00:18;;;;;;;5.30;2.60;;;;;;;;;;5117995;27;20922;-78
2021/05/11 18:02:44;;;;;;;3.57;2.27;;;;;;;;;;5112030;27;20463;-78
2021/05/11 18:05:11;;;;;;;3.67;2.60;;;;;;;;;;5123554;27;20493;-77
2021/05/11 18:07:38;;;;;;;4.45;2.58;;;;;;;;;;5111234;27;20440;-80
2021/05/11 18:10:04;;;;;;;5.00;2.90;;;;;;;;;;5130969;27;20197;-80
2021/05/11 18:12:30;;;;;;;5.15;2.67;;;;;;;;;;5131005;27;20597;-80
2021/05/11 18:14:56;;;;;;;5.20;2.90;;;;;;;;;;5109827;27;20174;-81
2021/05/11 18:17:23;;;;;;;5.10;2.73;;;;;;;;;;5125124;27;20378;-83
2021/05/11 18:19:49;;;;;;;3.50;2.50;;;;;;;;;;5130834;27;20430;-77
2021/05/11 18:22:15;;;;;;;4.53;2.90;;;;;;;;;;5130703;27;20472;-78
2021/05/11 18:24:41;;;;;;;4.57;2.83;;;;;;;;;;5131035;27;20412;-79
2021/05/11 18:27:07;;;;;;;3.53;2.93;;;;;;;;;;5119761;27;20416;-81
2021/05/11 18:29:35;;;;;;;4.97;2.73;;;;;;;;;;5110132;28;20424;-82
2021/05/11 18:32:01;;;;;;;3.50;2.92;;;;;;;;;;5111608;27;20427;-78
2021/05/11 18:34:27;;;;;;;4.73;2.83;;;;;;;;;;5109659;28;20182;-78
2021/05/11 18:39:24;;;;;;;11.80;9.77;;;;;;;;;;5130697;27;20472;-79
2021/05/11 18:41:51;;;;;;;21.15;13.35;;;;;;;;;;5128804;27;20466;-79
2021/05/11 18:44:17;;;;;;;11.07;8.05;;;;;;;;;;5109412;28;20174;-79
2021/05/11 18:46:45;;;;;;;4.75;2.58;;;;;;;;;;5125638;27;20174;-80
2021/05/11 18:49:11;;;;;;;6.22;2.90;;;;;;;;;;5127882;27;20742;-78